16 sierpnia 2022

Czas Kod Pogoda Temp. Widoczność Sufit Wiatr METAR/SPECI
2:00 am
V
64 °F 20 mi 14.000 ft 100° 100° 12 kt METAR CYVR 160900Z 10012KT 20SM BKN140 18/15 A3000 RMK AC7 SLP160 DENSITY ALT 300FT
1:00 am
V
66 °F 20 mi 15.000 ft 130° 130° 9 kt METAR CYVR 160800Z 13009KT 20SM OVC150 19/15 A3000 RMK AC8 SLP160 DENSITY ALT 400FT
12:00 am
V
68 °F 20 mi 15.000 ft 110° 110° 7 kt METAR CYVR 160700Z 11007KT 20SM BKN150 20/15 A2999 RMK AC7 SLP157 DENSITY ALT 500FT

15 sierpnia 2022

Czas Kod Pogoda Temp. Widoczność Sufit Wiatr METAR/SPECI
11:00 pm
V
66 °F 20 mi - 110° 110° 9 kt METAR CYVR 160600Z 11009KT 20SM SCT180 19/14 A2998 RMK AC4 SLP156 DENSITY ALT 500FT
10:00 pm
V
68 °F 20 mi - 090° 090° 8 kt METAR CYVR 160500Z 09008KT 20SM FEW180 FEW240 20/15 A2998 RMK AC1CI1 CI TR SLP156 DENSITY ALT 600FT
9:00 pm
V
70 °F 20 mi - 090° 090° 6 kt METAR CYVR 160400Z 09006KT 20SM FEW160 FEW200 FEW240 21/16 A2998 RMK AC1CC1CI1 AC TR CI TR SLP153 DENSITY ALT 700FT
8:00 pm
V
72 °F 25 mi - 190° 190° 5 kt METAR CYVR 160300Z 19005KT 170V250 25SM FEW200 FEW240 22/15 A2996 RMK CC1CI1 SLP149 DENSITY ALT 800FT
7:00 pm
V
75 °F 30 mi - 210° 210° 7 kt METAR CYVR 160200Z 21007KT 30SM FEW200 SCT240 24/15 A2996 RMK CC1CI3 SLP149 DENSITY ALT 1100FT
6:00 pm
V
77 °F 30 mi - 200° 200° 8 - 17 kt METAR CYVR 160100Z 20008G17KT 30SM FEW180 SCT210 SCT250 25/15 A2997 RMK AC1CI3CC1 AC TR CC TR SLP152 DENSITY ALT 1200FT
5:00 pm
V
79 °F 30 mi 21.000 ft 210° 210° 9 kt METAR CYVR 160000Z 21009KT 30SM BKN210 26/16 A2998 RMK CI5 SLP154 DENSITY ALT 1200FT
4:00 pm
V
79 °F 30 mi - 220° 220° 8 kt METAR CYVR 152300Z 22008KT 30SM FEW045 FEW200 FEW240 26/16 A2999 RMK CU1CC1CI2 CU TR CC TR SLP159 DENSITY ALT 1300FT
3:00 pm
V
79 °F 30 mi - 220° 220° 9 kt METAR CYVR 152200Z 22009KT 180V330 30SM FEW040 FEW210 FEW240 26/16 A3000 RMK CU1CI1CI2 CU TR CI TR SLP163 DENSITY ALT 1200FT
2:00 pm
V
77 °F 30 mi - 230° 230° 8 kt METAR CYVR 152100Z 23008KT 200V270 30SM FEW040 FEW210 SCT240 25/16 A3002 RMK CU1CI2CI2 CU TR SLP169 DENSITY ALT 1100FT
1:00 pm
V
75 °F 30 mi - 210° 210° 8 kt METAR CYVR 152000Z 21008KT 30SM FEW030 SCT210 SCT240 24/17 A3004 RMK CU1CI4CI1 CU TR CI TR SLP174 DENSITY ALT 900FT
12:00 pm
V
73 °F 30 mi - 220° 220° 7 - 17 kt METAR CYVR 151900Z 22007G17KT 180V270 30SM FEW030 FEW180 FEW210 FEW240 23/16 A3005 RMK CU1AC1CI1CI1 CU TR CI TR SLP179 DENSITY ALT 800FT
11:00 am
V
72 °F 30 mi - 210° 210° 7 kt METAR CYVR 151800Z 21007KT 120V230 30SM SCT240 22/17 A3006 RMK CI4 SLP182 DENSITY ALT 700FT
10:00 am
V
70 °F 30 mi 24.000 ft 150° 150° 5 kt METAR CYVR 151700Z 15005KT 120V200 30SM FEW180 BKN240 21/14 A3006 RMK AC1CI5 AC TR CONTRAILS SLP182 DENSITY ALT 600FT
9:00 am
V
68 °F 30 mi - 120° 120° 5 kt METAR CYVR 151600Z 12005KT 30SM FEW180 SCT240 20/15 A3006 RMK AC1CI4 AC TR SLP181 DENSITY ALT 500FT
8:00 am
V
64 °F 30 mi - 100° 100° 7 kt METAR CYVR 151500Z 10007KT 30SM FEW160 SCT240 18/16 A3006 RMK AC1CI2 SLP181 DENSITY ALT 200FT
7:00 am
V
61 °F 30 mi - 090° 090° 7 kt METAR CYVR 151400Z 09007KT 30SM FEW160 FEW180 FEW210 16/16 A3006 RMK AC1AC1CI1 AC TR SLP181
6:00 am
V
59 °F 20 mi - 100° 100° 5 kt METAR CYVR 151300Z 10005KT 20SM FEW160 FEW240 15/15 A3006 RMK AC1CI1 AC TR CI TR SLP180
5:00 am
V
59 °F 20 mi - 090° 090° 6 kt METAR CYVR 151200Z 09006KT 20SM FEW150 15/15 A3005 RMK AC1 AC TR SLP178
4:00 am
V
61 °F 20 mi - 100° 100° 5 kt METAR CYVR 151100Z 10005KT 20SM FEW240 16/16 A3006 RMK CI1 SLP180
3:00 am
V
63 °F 20 mi 24.000 ft 100° 100° 6 kt METAR CYVR 151000Z 10006KT 20SM FEW160 BKN240 17/16 A3005 RMK AC1CI5 SLP179 DENSITY ALT 100FT
2:00 am
V
64 °F 20 mi 22.000 ft Var 000° 0 kt METAR CYVR 150900Z 00000KT 20SM SCT160 BKN220 OVC240 18/17 A3006 RMK AC3CC4CI1 SLP180 DENSITY ALT 300FT
1:00 am
V
63 °F 20 mi 23.000 ft 330° 330° 3 kt METAR CYVR 150800Z 33003KT 20SM SCT200 BKN230 17/16 A3007 RMK CC3CI4 SLP184 DENSITY ALT 100FT
12:00 am
V
63 °F 20 mi 23.000 ft 320° 320° 2 kt METAR CYVR 150700Z 32002KT 20SM FEW180 BKN230 17/15 A3007 RMK AC2CI4 SLP184 DENSITY ALT 100FT

14 sierpnia 2022

Czas Kod Pogoda Temp. Widoczność Sufit Wiatr METAR/SPECI
11:00 pm
V
64 °F 20 mi - 330° 330° 2 kt METAR CYVR 150600Z 33002KT 20SM SCT180 18/15 A3006 RMK AC4 SLP182 DENSITY ALT 300FT
10:00 pm
V
66 °F 20 mi 18.000 ft 330° 330° 3 kt METAR CYVR 150500Z 33003KT 20SM SCT090 BKN180 19/16 A3007 RMK AC3AC4 SLP185 DENSITY ALT 300FT
9:00 pm
V
66 °F 20 mi 19.000 ft 310° 310° 3 kt METAR CYVR 150400Z 31003KT 20SM FEW120 BKN190 BKN230 19/16 A3006 RMK AC2AC4CI1 SLP183 DENSITY ALT 300FT
8:00 pm
V
66 °F 30 mi - 280° 280° 2 kt METAR CYVR 150300Z 28002KT 30SM FEW090 SCT180 SCT230 19/17 A3006 RMK AC1AC2CI1 SLP182 DENSITY ALT 300FT
7:00 pm
V
70 °F 30 mi 23.000 ft 300° 300° 3 kt METAR CYVR 150200Z 30003KT 30SM FEW130 SCT160 BKN230 21/16 A3007 RMK AC2AC1CI2 SLP185 DENSITY ALT 600FT
6:00 pm
V
73 °F 30 mi - 240° 240° 5 kt METAR CYVR 150100Z 24005KT 220V290 30SM FEW055 FEW100 FEW230 23/14 A3008 RMK CU1AC1CI1 CU TR VIRGA SLP189 DENSITY ALT 800FT
5:00 pm
V
73 °F 30 mi - 240° 240° 7 kt METAR CYVR 150000Z 24007KT 30SM FEW055 FEW100 FEW230 23/14 A3009 RMK CU1AC1CI1 CU TR AC TR SLP191 DENSITY ALT 800FT
4:00 pm
V
73 °F 30 mi - 240° 240° 6 kt METAR CYVR 142300Z 24006KT 190V310 30SM FEW055 FEW100 FEW230 23/15 A3011 RMK CU1AC1CI1 CU TR AC TR CI TR SLP198 DENSITY ALT 800FT
3:00 pm
V
73 °F 30 mi - 230° 230° 5 kt METAR CYVR 142200Z 23005KT 200V260 30SM FEW055 FEW100 FEW210 23/14 A3012 RMK CU1AC1CC1 CU TR CC TR SLP203 DENSITY ALT 800FT
2:00 pm
V
73 °F 30 mi - 220° 220° 5 kt METAR CYVR 142100Z 22005KT 210V270 30SM FEW055 FEW100 FEW210 FEW230 23/15 A3013 RMK CU1AC1CC1CI1 CU TR CC TR CI TR SLP206 DENSITY ALT 700FT
1:00 pm
V
72 °F 30 mi - 220° 220° 8 kt METAR CYVR 142000Z 22008KT 30SM FEW055 FEW100 FEW210 FEW230 22/16 A3014 RMK CU1AC1CC1CI1 CU TR AC TR CC TR CI TR SLP209 DENSITY ALT 600FT
12:00 pm
V
70 °F 30 mi - 220° 220° 9 kt METAR CYVR 141900Z 22009KT 30SM FEW055 FEW210 FEW230 21/17 A3015 RMK CU1CC1CI1 CU TR CC TR CI TR SLP212 DENSITY ALT 500FT
11:00 am
V
68 °F 30 mi - 220° 220° 7 kt METAR CYVR 141800Z 22007KT 30SM FEW055 FEW100 FEW230 20/16 A3015 RMK CU1AC1CI1 CU TR AC TR CI TR SLP212 DENSITY ALT 400FT
10:00 am
V
68 °F 30 mi - 140° 140° 4 kt METAR CYVR 141700Z 14004KT 070V180 30SM FEW055 FEW100 FEW210 FEW230 20/14 A3016 RMK CU1AC1CC1CI1 CU TR CC TR CI TR SLP216 DENSITY ALT 400FT
9:00 am
V
64 °F 30 mi - 100° 100° 8 kt METAR CYVR 141600Z 10008KT 30SM FEW100 SCT130 SCT210 SCT230 18/15 A3016 RMK AC2AC1CC1CI1 CC TR CI TR SLP217 DENSITY ALT 100FT
8:00 am
V
63 °F 30 mi 13.000 ft 100° 100° 6 kt METAR CYVR 141500Z 10006KT 30SM SCT100 BKN130 BKN210 BKN230 17/15 A3016 RMK AC4AC2CC1CI1 CC TR CI TR SLP217
7:00 am
V
61 °F 20 mi 13.000 ft 100° 100° 6 kt METAR CYVR 141400Z 10006KT 20SM SCT100 BKN130 BKN210 BKN230 16/15 A3016 RMK AC3AC3CC1CI1 CC TR CI TR SLP214
6:00 am
V
61 °F 20 mi 11.000 ft 110° 110° 3 kt METAR CYVR 141300Z 11003KT 20SM BKN110 BKN160 BKN210 BKN230 16/15 A3015 RMK AC5AC1CC1CI1 AC TR CI TR SLP211
5:00 am
V
61 °F 15 mi 11.000 ft 060° 060° 2 kt METAR CYVR 141200Z 06002KT 15SM BKN110 BKN230 16/15 A3014 RMK AC5CI1 SLP210
4:00 am
V
61 °F 15 mi - 120° 120° 3 kt METAR CYVR 141100Z CCA 12003KT 15SM FEW220 SCT230 SCT240 16/15 A3014 RMK CC1CI2CI1 SLP210
Starsze dane

My i osoby trzecie śledzimy twoje zachowanie w internecie na naszej stronie za pomocą plików cookie. Jeśli kontynuujesz, zakładamy, że zgadzasz się z naszą polityką plików cookie. Dowiedz się więcej